createdAt,value
2023-12-05T05:29:24.909Z,36.63
2023-12-05T05:33:30.032Z,30.15
2023-12-05T05:37:34.386Z,36.97
2023-12-05T05:41:37.788Z,44.65
2023-12-05T05:45:41.099Z,31.98
2023-12-05T05:49:44.880Z,29.20
2023-12-05T05:53:47.878Z,19.98
2023-12-05T05:57:50.957Z,32.65
2023-12-05T06:01:53.789Z,24.40
2023-12-05T06:05:59.059Z,21.33
2023-12-05T06:10:02.239Z,20.00
2023-12-05T06:14:05.606Z,28.23
2023-12-05T06:18:08.668Z,22.10
2023-12-05T06:22:11.667Z,28.40
2023-12-05T06:26:14.560Z,28.60
2023-12-05T06:30:24.484Z,24.30
2023-12-05T06:34:29.896Z,27.65
2023-12-05T06:38:32.961Z,28.13
2023-12-05T06:42:35.992Z,28.38
2023-12-05T06:46:39.172Z,25.35
2023-12-05T06:50:46.576Z,24.90
2023-12-05T06:54:49.833Z,33.10
2023-12-05T06:58:52.632Z,31.85
2023-12-05T07:02:55.721Z,33.23
2023-12-05T07:07:00.675Z,41.47
2023-12-05T07:11:04.125Z,32.33
2023-12-05T07:15:09.264Z,26.63
2023-12-05T07:19:19.272Z,27.87
2023-12-05T07:23:23.776Z,27.02
2023-12-05T07:27:27.158Z,25.43
2023-12-05T07:31:30.051Z,37.20
2023-12-05T07:35:33.608Z,35.90
2023-12-05T07:39:37.470Z,37.53
2023-12-05T07:43:40.657Z,25.67
2023-12-05T07:47:44.836Z,31.35
2023-12-05T07:51:49.668Z,24.33
2023-12-05T07:55:52.526Z,19.90
2023-12-05T07:59:55.642Z,26.80
2023-12-05T08:03:59.246Z,22.75
2023-12-05T08:08:02.918Z,26.30
2023-12-05T08:12:06.250Z,27.13
2023-12-05T08:16:10.329Z,22.17
2023-12-05T08:20:13.857Z,24.93
2023-12-05T08:24:17.270Z,24.55
2023-12-05T08:28:21.540Z,21.92
2023-12-05T08:32:27.024Z,19.80
2023-12-05T08:37:10.454Z,24.85
2023-12-05T08:42:08.405Z,18.05
2023-12-05T08:46:21.661Z,28.00
2023-12-05T08:50:45.400Z,22.85
2023-12-05T08:55:06.401Z,23.15
2023-12-05T08:59:13.790Z,28.20
2023-12-05T09:03:24.373Z,25.33
2023-12-05T09:07:31.587Z,30.88
2023-12-05T09:11:34.913Z,23.25
2023-12-05T09:15:37.709Z,21.73
2023-12-05T09:19:40.738Z,24.48
2023-12-05T09:23:43.505Z,27.15
2023-12-05T09:27:46.716Z,28.07
2023-12-05T09:31:49.748Z,27.50
2023-12-05T09:36:10.471Z,26.42
2023-12-05T09:40:13.533Z,24.20
2023-12-05T09:44:22.139Z,27.90
2023-12-05T09:48:27.244Z,26.58
2023-12-05T09:52:30.760Z,25.83
2023-12-05T09:56:34.995Z,23.85
2023-12-05T10:00:38.894Z,25.77
2023-12-05T10:04:56.261Z,27.55
2023-12-05T10:13:57.150Z,28.40
2023-12-05T10:18:08.501Z,26.42
2023-12-05T10:22:12.072Z,27.07
2023-12-05T10:26:44.771Z,27.87
2023-12-05T10:30:47.908Z,28.15
2023-12-05T10:34:52.940Z,28.27
2023-12-05T10:38:56.076Z,27.95
2023-12-05T10:43:01.514Z,29.73
2023-12-05T10:47:07.139Z,27.90
2023-12-05T10:51:14.267Z,31.33
2023-12-05T10:55:37.516Z,27.98
2023-12-05T10:59:46.978Z,26.60
2023-12-05T11:04:16.102Z,27.77
2023-12-05T11:08:21.916Z,25.48
2023-12-05T11:12:41.886Z,24.65
2023-12-05T11:17:28.293Z,29.77
2023-12-05T11:21:56.882Z,26.77
2023-12-05T11:26:50.267Z,26.20
2023-12-05T11:31:12.992Z,24.37
2023-12-05T11:35:56.013Z,26.62
2023-12-05T11:40:04.893Z,31.20
2023-12-05T11:44:16.333Z,28.55
2023-12-05T11:48:32.784Z,27.50
2023-12-05T11:52:40.657Z,30.12
2023-12-05T11:56:43.554Z,31.05
2023-12-05T12:00:47.135Z,26.90
2023-12-05T12:05:01.265Z,28.17
2023-12-05T12:09:04.373Z,31.35
2023-12-05T12:13:07.573Z,29.90
2023-12-05T12:17:12.965Z,35.33
2023-12-05T12:21:16.173Z,31.30
2023-12-05T12:25:19.674Z,30.92
2023-12-05T12:29:24.103Z,31.93
2023-12-05T12:33:45.657Z,30.33
2023-12-05T12:38:11.486Z,32.20
2023-12-05T12:42:17.343Z,40.23
2023-12-05T12:46:47.072Z,72.32
2023-12-05T12:50:59.457Z,50.42
2023-12-05T12:55:30.225Z,45.93
2023-12-05T12:59:45.370Z,32.47
2023-12-05T13:08:47.585Z,29.27
2023-12-05T13:13:00.246Z,35.13
2023-12-05T13:17:09.257Z,33.17
2023-12-05T13:21:13.622Z,33.30
2023-12-05T13:25:16.327Z,31.07
2023-12-05T13:29:26.210Z,35.13
2023-12-05T13:34:00.062Z,35.55
2023-12-05T13:38:05.989Z,40.13
2023-12-05T13:42:08.687Z,35.33
2023-12-05T13:46:15.557Z,35.97
2023-12-05T13:50:20.355Z,37.25
2023-12-05T13:54:23.891Z,40.03
2023-12-05T13:58:26.740Z,34.25
2023-12-05T14:02:30.004Z,36.33
2023-12-05T14:06:33.279Z,43.40
2023-12-05T14:10:36.550Z,34.80
2023-12-05T14:14:43.174Z,35.67
2023-12-05T14:18:45.982Z,46.33
2023-12-05T14:22:49.212Z,29.58
2023-12-05T14:26:51.972Z,45.90
2023-12-05T14:30:55.309Z,37.15
2023-12-05T14:34:58.248Z,33.47
2023-12-05T14:39:07.802Z,41.22
2023-12-05T14:43:13.616Z,30.88
2023-12-05T14:47:16.674Z,33.13
2023-12-05T14:51:19.428Z,40.22
2023-12-05T14:55:22.513Z,33.40
2023-12-05T14:59:25.345Z,42.50
2023-12-05T15:03:28.574Z,38.42
2023-12-05T15:07:31.488Z,39.38
2023-12-05T15:11:35.392Z,46.87
2023-12-05T15:15:38.158Z,55.60
2023-12-05T15:20:17.265Z,45.38
2023-12-05T15:24:04.498Z,34.55
2023-12-05T15:28:08.909Z,34.50
2023-12-05T15:32:11.767Z,41.53
2023-12-05T15:36:14.836Z,33.72
2023-12-05T15:40:17.786Z,37.40
2023-12-05T15:44:20.996Z,38.22
2023-12-05T15:48:43.315Z,42.62
2023-12-05T15:52:47.603Z,40.50
2023-12-05T15:56:50.910Z,37.45
2023-12-05T16:00:59.213Z,30.45
2023-12-05T16:05:03.521Z,40.53
2023-12-05T16:09:06.285Z,37.60
2023-12-05T16:13:09.389Z,41.88
